Time;durP1;ratioP1;P1;durP2;ratioP2;P2;SDS_P1;SDS_P2;PMS_P1;PMS_P2;Temp;Humidity;BMP_temperature;BMP_pressure;BME280_temperature;BME280_humidity;BME280_pressure;Samples;Min_cycle;Max_cycle;Signal;HPM_P1;HPM_P2
2023/06/20 00:02:03;;;;;;;5.57;5.17;;;20.30;90.30;;;20.43;72.86;97578.75;5011705;28;20950;-80
2023/06/20 00:04:31;;;;;;;6.17;5.17;;;20.40;90.50;;;20.40;72.60;97573.84;5029449;28;20552;-81
2023/06/20 00:06:58;;;;;;;5.67;5.17;;;20.40;90.30;;;20.57;71.45;97587.13;5030739;28;20470;-82
2023/06/20 00:09:26;;;;;;;5.90;5.30;;;20.50;90.00;;;21.03;70.21;97588.50;5029467;28;20504;-82
2023/06/20 00:11:54;;;;;;;5.57;5.00;;;20.80;89.20;;;20.69;70.54;97580.38;5028114;28;20465;-80
2023/06/20 00:14:22;;;;;;;6.30;5.40;;;20.80;88.20;;;20.23;71.70;97571.56;5028644;28;20447;-81
2023/06/20 00:16:49;;;;;;;5.67;5.17;;;20.50;88.90;;;20.04;72.73;97574.22;5009819;28;20762;-80
2023/06/20 00:19:16;;;;;;;6.60;6.00;;;20.30;89.30;;;19.93;73.68;97568.00;5030626;28;20480;-79
2023/06/20 00:21:44;;;;;;;6.10;5.40;;;20.20;90.00;;;19.79;73.84;97541.25;5010819;28;20458;-80
2023/06/20 00:24:11;;;;;;;5.90;5.27;;;20.10;90.50;;;20.00;73.23;97567.66;5028210;28;20470;-78
2023/06/20 00:26:38;;;;;;;6.10;5.50;;;20.00;90.30;;;19.58;73.04;97512.38;5030016;28;20490;-78
2023/06/20 00:29:07;;;;;;;6.33;5.40;;;20.00;90.20;;;19.93;72.90;97574.31;5032371;28;20941;-78
2023/06/20 00:31:34;;;;;;;5.70;5.20;;;20.00;90.20;;;19.72;73.54;97543.50;5011634;28;20540;-79
2023/06/20 00:34:02;;;;;;;7.70;5.23;;;20.00;90.60;;;19.97;73.28;97588.28;5010295;28;20539;-81
2023/06/20 00:36:29;;;;;;;6.07;5.47;;;20.00;90.60;;;19.94;73.71;97597.88;5031533;28;20466;-81
2023/06/20 00:38:56;;;;;;;5.80;5.30;;;19.90;90.90;;;19.91;73.99;97598.44;5029709;28;20504;-79
2023/06/20 00:41:24;;;;;;;5.80;4.97;;;19.90;90.90;;;20.43;71.31;97591.69;5027715;28;20446;-78
2023/06/20 00:43:52;;;;;;;6.10;5.50;;;20.30;90.00;;;20.55;71.11;97592.09;5011910;28;20516;-79
2023/06/20 00:46:27;;;;;;;5.80;5.27;;;20.40;89.50;;;20.69;70.14;97586.72;5029283;28;20454;-80
2023/06/20 00:48:57;;;;;;;6.37;5.30;;;20.60;88.50;;;20.82;69.12;97566.00;5009733;28;20586;-78
2023/06/20 00:51:28;;;;;;;5.97;5.37;;;20.80;87.70;;;20.95;69.21;97589.19;5041362;28;20461;-79
2023/06/20 00:53:57;;;;;;;6.43;5.37;;;20.90;87.60;;;20.71;70.04;97591.91;5040210;28;20465;-79
2023/06/20 00:56:25;;;;;;;5.37;4.87;;;20.80;87.80;;;20.86;69.48;97583.53;5013202;28;20504;-78
2023/06/20 00:58:54;;;;;;;7.23;5.97;;;20.80;87.90;;;20.49;70.71;97591.34;5032957;28;21129;-78
2023/06/20 01:01:24;;;;;;;5.73;5.20;;;20.60;87.80;;;20.30;71.21;97598.66;5027904;28;20612;-81
2023/06/20 01:04:13;;;;;;;5.50;5.00;;;20.40;88.20;;;20.23;72.46;97613.53;5007210;28;20503;-80
2023/06/20 01:06:49;;;;;;;6.83;5.13;;;20.20;89.90;;;20.22;72.09;97619.28;5024615;28;20458;-80
2023/06/20 01:09:24;;;;;;;6.30;5.70;;;20.20;89.90;;;19.63;72.25;97523.28;5027173;28;20482;-81
2023/06/20 01:12:02;;;;;;;5.90;5.40;;;20.20;90.10;;;20.00;72.99;97611.53;5013575;28;20460;-80
2023/06/20 01:14:35;;;;;;;6.23;5.63;;;20.10;90.20;;;19.84;73.69;97602.59;5011947;28;20973;-81
2023/06/20 01:17:12;;;;;;;5.50;5.00;;;20.00;90.50;;;19.78;73.93;97593.59;5029013;28;20580;-81
2023/06/20 01:20:12;;;;;;;6.93;5.93;;;19.90;90.60;;;19.72;74.45;97606.50;5011155;28;20519;-81
2023/06/20 01:22:57;;;;;;;6.23;5.73;;;19.80;90.90;;;19.56;74.70;97580.34;5009238;28;20818;-81
2023/06/20 01:25:32;;;;;;;6.90;5.50;;;19.70;91.20;;;19.62;75.07;97612.91;5013883;28;20458;-78
2023/06/20 01:28:11;;;;;;;6.63;5.90;;;19.60;91.30;;;19.59;75.57;97612.63;5011858;28;20480;-80
2023/06/20 01:30:46;;;;;;;7.60;6.17;;;19.60;91.70;;;19.59;75.47;97612.63;5016180;28;20882;-79
2023/06/20 01:33:20;;;;;;;6.23;5.63;;;19.70;91.70;;;19.60;75.55;97617.00;5032142;28;20449;-80
2023/06/20 01:35:49;;;;;;;7.03;6.37;;;19.60;91.80;;;19.93;73.68;97611.84;5032434;28;20476;-81
2023/06/20 01:38:20;;;;;;;8.40;6.13;;;19.70;91.30;;;19.91;73.67;97612.13;5028639;28;20607;-80
2023/06/20 01:40:50;;;;;;;6.60;5.90;;;19.80;91.10;;;19.77;74.58;97619.38;5007624;28;20457;-80
2023/06/20 01:43:19;;;;;;;5.90;5.40;;;19.80;91.10;;;19.85;73.21;97594.06;5029145;28;20473;-80
2023/06/20 01:45:49;;;;;;;6.80;6.03;;;19.80;90.80;;;20.07;72.55;97623.81;5026643;28;20524;-79
2023/06/20 01:48:18;;;;;;;7.27;6.60;;;19.90;90.60;;;19.80;74.74;97625.09;5025667;28;20458;-80
2023/06/20 01:50:47;;;;;;;6.83;6.10;;;19.80;91.20;;;19.50;74.25;97580.38;5013716;28;20455;-79
2023/06/20 01:53:18;;;;;;;7.40;6.57;;;19.80;91.30;;;19.70;75.51;97610.63;5007731;28;20474;-79
2023/06/20 01:55:47;;;;;;;7.70;6.80;;;19.70;91.80;;;19.71;75.67;97615.84;5033238;28;20469;-81
2023/06/20 01:58:24;;;;;;;8.67;7.37;;;19.70;92.10;;;19.53;76.55;97614.59;5031465;28;20447;-80
2023/06/20 02:00:52;;;;;;;7.47;6.40;;;19.60;92.50;;;19.43;76.79;97610.00;5031415;28;20453;-81
2023/06/20 02:03:20;;;;;;;7.77;7.00;;;19.50;92.30;;;19.48;76.67;97611.91;5031088;28;20470;-81
2023/06/20 02:05:49;;;;;;;7.67;6.90;;;19.50;92.40;;;19.61;76.45;97615.91;5013339;28;20456;-79
2023/06/20 02:08:20;;;;;;;10.00;7.73;;;19.70;92.30;;;19.58;76.73;97621.97;5026871;28;20452;-79
2023/06/20 02:10:48;;;;;;;8.87;6.40;;;19.70;92.50;;;19.39;77.48;97611.69;5030797;28;20465;-81
2023/06/20 02:13:16;;;;;;;7.67;6.87;;;19.50;92.60;;;19.36;77.25;97599.34;5033116;28;20454;-78
2023/06/20 02:15:45;;;;;;;10.30;8.17;;;19.50;92.70;;;19.44;77.24;97613.56;5038919;28;20642;-77
2023/06/20 02:18:12;;;;;;;8.13;7.03;;;19.50;92.70;;;19.40;77.39;97613.31;5044801;28;20450;-78
2023/06/20 02:20:39;;;;;;;9.30;6.30;;;19.50;92.60;;;19.44;77.29;97610.84;5043590;28;20466;-80
2023/06/20 02:23:09;;;;;;;6.97;6.27;;;19.50;92.80;;;19.86;75.68;97616.84;5029409;28;20451;-79
2023/06/20 02:25:43;;;;;;;8.20;7.20;;;19.70;92.50;;;19.97;74.76;97623.91;5033707;28;20510;-79
2023/06/20 02:28:13;;;;;;;7.87;6.93;;;19.90;91.80;;;20.27;73.19;97630.22;5033415;28;20525;-81
2023/06/20 02:30:40;;;;;;;8.00;7.00;;;20.10;91.00;;;20.59;71.52;97634.31;5018176;28;20477;-81
2023/06/20 02:33:09;;;;;;;8.53;7.63;;;20.40;90.40;;;20.50;71.60;97633.28;5009356;28;20531;-80
2023/06/20 02:35:39;;;;;;;8.07;7.30;;;20.40;90.00;;;20.36;71.75;97625.72;5025824;28;20450;-81
2023/06/20 02:38:08;;;;;;;9.90;7.30;;;20.50;89.80;;;20.60;70.84;97646.91;5029427;28;20477;-79
2023/06/20 02:40:38;;;;;;;7.03;6.33;;;20.50;89.10;;;20.45;71.40;97645.13;5028806;28;20519;-80
2023/06/20 02:43:06;;;;;;;7.83;7.07;;;20.50;89.20;;;20.41;71.15;97654.25;5030356;28;20461;-81
2023/06/20 02:45:33;;;;;;;7.37;6.67;;;20.50;88.80;;;20.56;70.56;97656.00;5030593;28;20560;-82
2023/06/20 02:48:24;;;;;;;7.57;6.77;;;20.50;88.80;;;20.88;69.68;97668.31;5030242;28;20458;-81
2023/06/20 02:51:06;;;;;;;7.33;6.57;;;20.70;88.30;;;21.08;68.59;97675.50;5028471;28;20495;-80
2023/06/20 02:53:45;;;;;;;7.47;6.77;;;21.00;87.40;;;20.66;68.44;97639.44;5014515;28;20951;-80
2023/06/20 02:56:15;;;;;;;8.50;6.80;;;21.00;86.80;;;20.97;68.49;97726.16;5029556;28;20473;-80
2023/06/20 02:58:50;;;;;;;7.63;6.90;;;20.90;87.00;;;21.05;68.08;97729.09;5027666;28;20466;-81
2023/06/20 03:01:25;;;;;;;8.00;7.20;;;21.10;86.70;;;20.96;68.63;97741.84;5034024;28;21258;-81
2023/06/20 03:03:56;;;;;;;8.30;7.50;;;21.00;86.80;;;20.55;70.43;97721.06;5015945;28;20467;-81
2023/06/20 03:06:27;;;;;;;8.60;7.70;;;20.80;87.30;;;20.42;70.39;97713.50;5032873;28;21018;-78
2023/06/20 03:08:58;;;;;;;9.27;8.37;;;20.70;87.60;;;20.62;70.61;97738.00;5010752;28;20935;-81
2023/06/20 03:11:27;;;;;;;8.03;7.33;;;20.70;88.20;;;21.22;68.21;97745.13;5020172;28;20520;-82
2023/06/20 03:13:55;;;;;;;8.83;8.03;;;21.00;87.10;;;21.41;66.85;97755.31;5028907;28;20497;-81
2023/06/20 03:16:26;;;;;;;9.10;8.20;;;21.20;86.30;;;20.99;68.37;97765.13;5033195;28;20530;-81
2023/06/20 03:18:53;;;;;;;10.43;9.33;;;21.20;86.80;;;20.95;68.56;97765.72;5016458;28;20458;-80
2023/06/20 03:21:21;;;;;;;10.10;9.20;;;21.10;86.50;;;20.88;69.05;97772.66;5029369;28;20458;-80
2023/06/20 03:23:48;;;;;;;10.17;8.93;;;21.00;86.70;;;20.81;69.14;97775.72;5012428;28;20459;-81
2023/06/20 03:26:16;;;;;;;9.33;8.43;;;20.90;86.70;;;20.83;68.83;97776.25;5027976;28;20954;-80
2023/06/20 03:28:44;;;;;;;9.03;8.20;;;20.90;86.40;;;20.92;68.44;97774.53;5012839;28;20477;-80
2023/06/20 03:31:14;;;;;;;9.37;8.17;;;21.00;86.50;;;21.23;67.20;97779.72;5026998;28;20471;-82
2023/06/20 03:33:41;;;;;;;9.63;8.80;;;21.20;86.10;;;21.19;67.35;97780.56;5011709;28;20458;-77
2023/06/20 03:36:09;;;;;;;10.33;9.23;;;21.10;86.10;;;21.07;67.39;97775.50;5024090;28;20603;-77
2023/06/20 03:38:37;;;;;;;9.20;8.30;;;21.10;86.00;;;21.19;67.38;97778.66;5014634;28;20491;-77
2023/06/20 03:41:04;;;;;;;10.07;8.93;;;21.10;86.00;;;21.17;67.23;97788.28;5009815;28;20471;-77
2023/06/20 03:43:31;;;;;;;9.47;8.47;;;21.10;85.90;;;21.26;66.97;97789.31;5026242;28;20510;-79
2023/06/20 03:46:00;;;;;;;9.77;8.80;;;21.10;86.00;;;21.13;66.72;97777.06;5014356;28;20458;-80
2023/06/20 03:48:27;;;;;;;9.33;8.43;;;21.10;85.50;;;21.18;66.70;97782.53;5009617;28;20469;-79
2023/06/20 03:50:55;;;;;;;9.23;8.33;;;21.10;85.40;;;21.34;66.46;97785.09;5028394;28;20475;-79
2023/06/20 03:53:22;;;;;;;8.90;8.00;;;21.20;85.30;;;20.87;66.70;97727.91;5009563;28;20874;-79
2023/06/20 03:55:50;;;;;;;7.87;7.10;;;21.20;85.50;;;21.31;66.83;97793.94;5001984;28;21124;-81
2023/06/20 03:58:17;;;;;;;9.47;8.53;;;21.20;85.60;;;21.30;66.39;97800.50;5007805;28;20510;-79
2023/06/20 04:00:46;;;;;;;9.83;8.83;;;21.30;85.20;;;21.50;65.81;97805.78;5024895;28;20547;-78
2023/06/20 04:03:15;;;;;;;8.60;7.70;;;21.30;85.00;;;21.49;65.88;97814.31;5022790;28;20468;-79
2023/06/20 04:05:42;;;;;;;8.43;7.73;;;21.40;85.10;;;21.11;66.58;97754.56;5009635;28;20462;-80
2023/06/20 04:08:09;;;;;;;10.20;9.20;;;21.40;85.30;;;21.44;67.54;97804.19;5027272;28;20471;-80
2023/06/20 04:10:38;;;;;;;9.13;8.23;;;21.40;85.80;;;21.52;67.44;97798.06;5026384;28;20577;-79
2023/06/20 04:13:05;;;;;;;7.60;6.90;;;21.50;86.00;;;21.51;66.54;97782.69;5010625;28;20467;-80
2023/06/20 04:15:33;;;;;;;8.67;7.87;;;21.50;85.60;;;21.13;68.94;97746.84;5010523;28;20990;-79
2023/06/20 04:18:00;;;;;;;10.63;8.60;;;21.40;86.70;;;21.27;67.35;97763.47;5007695;28;20450;-80
2023/06/20 04:20:28;;;;;;;11.70;9.53;;;21.30;85.60;;;21.26;67.59;97758.25;5032279;28;20854;-79
2023/06/20 04:22:55;;;;;;;9.67;8.67;;;21.30;85.80;;;21.17;69.90;97758.91;5008861;28;20449;-79
2023/06/20 04:25:22;;;;;;;9.23;8.47;;;21.20;86.90;;;21.03;69.01;97746.97;5010461;28;20464;-80
2023/06/20 04:27:53;;;;;;;9.87;8.57;;;21.10;86.60;;;20.58;71.08;97758.06;5014218;28;20458;-80
2023/06/20 04:30:21;;;;;;;9.80;8.80;;;20.80;87.40;;;20.32;73.84;97770.06;5013068;28;20470;-80
2023/06/20 04:32:50;;;;;;;11.93;8.47;;;20.60;89.80;;;20.38;74.26;97760.69;5028445;28;20464;-79
2023/06/20 04:35:20;;;;;;;9.17;8.30;;;20.50;91.10;;;20.31;74.23;97760.19;5008734;28;20462;-78
2023/06/20 04:37:51;;;;;;;9.53;8.57;;;20.40;90.90;;;20.37;76.78;97760.97;5008541;28;20489;-78
2023/06/20 04:40:18;;;;;;;11.43;9.37;;;20.40;92.10;;;20.26;75.99;97745.69;5010554;28;20456;-84
2023/06/20 04:42:46;;;;;;;9.77;8.80;;;20.30;92.40;;;20.24;75.12;97751.47;5029149;28;20452;-85
2023/06/20 04:45:13;;;;;;;9.93;8.90;;;20.30;91.80;;;20.29;77.83;97745.97;5011771;28;20458;-84
2023/06/20 04:47:42;;;;;;;9.53;8.63;;;20.30;93.40;;;20.12;78.27;97696.97;5033367;28;20942;-84
2023/06/20 04:50:10;;;;;;;8.70;7.80;;;20.30;93.40;;;20.29;77.50;97728.66;5016983;28;20524;-85
2023/06/20 04:52:37;;;;;;;9.47;8.47;;;20.30;93.30;;;20.47;76.03;97757.34;5027312;28;20532;-83
2023/06/20 04:55:07;;;;;;;10.70;9.40;;;20.40;92.80;;;20.14;77.54;97716.72;5027394;28;20461;-83
2023/06/20 04:57:35;;;;;;;10.60;9.60;;;20.50;93.40;;;20.48;78.01;97746.09;5026537;28;20461;-82
2023/06/20 05:00:07;;;;;;;13.03;8.70;;;20.50;93.50;;;20.59;79.55;97757.78;5027866;28;20483;-80
2023/06/20 05:02:34;;;;;;;9.10;8.20;;;20.60;94.50;;;20.60;80.32;97762.16;5031725;28;20461;-80
2023/06/20 05:05:01;;;;;;;9.73;8.80;;;20.70;95.00;;;20.75;80.26;97763.13;5045197;28;20447;-80
2023/06/20 05:07:29;;;;;;;11.30;10.20;;;20.80;95.20;;;20.46;78.38;97744.72;5034964;28;20458;-82
2023/06/20 05:09:56;;;;;;;11.37;9.20;;;20.70;93.30;;;20.50;77.63;97757.59;5032084;28;20506;-81
2023/06/20 05:12:25;;;;;;;9.60;8.67;;;20.70;93.00;;;20.47;79.40;97749.94;5029002;28;20952;-84
2023/06/20 05:14:52;;;;;;;9.27;8.33;;;20.60;93.90;;;20.66;76.92;97754.72;5033860;28;21025;-83
2023/06/20 05:17:20;;;;;;;9.63;8.50;;;20.70;92.80;;;21.61;71.21;97736.94;5014638;28;20451;-72
2023/06/20 05:19:47;;;;;;;9.23;8.33;;;21.30;90.80;;;22.25;69.26;97752.31;5017086;28;20461;-76
2023/06/20 05:22:14;;;;;;;9.07;8.17;;;22.00;89.40;;;21.67;70.90;97765.22;5021443;28;20731;-73
2023/06/20 05:24:42;;;;;;;10.17;9.27;;;21.80;89.30;;;21.22;73.16;97760.75;5025067;28;20462;-75
2023/06/20 05:27:09;;;;;;;9.80;8.90;;;21.50;89.90;;;21.13;73.79;97757.03;5024743;28;20476;-72
2023/06/20 05:29:38;;;;;;;11.00;8.83;;;21.40;90.20;;;21.72;71.62;97756.91;5011343;28;20523;-73
2023/06/20 05:32:06;;;;;;;9.43;8.43;;;21.60;90.10;;;22.47;67.45;97754.44;5009269;28;20484;-74
2023/06/20 05:34:34;;;;;;;9.50;8.50;;;22.20;88.70;;;22.06;68.50;97742.97;5028787;28;20457;-74
2023/06/20 05:37:01;;;;;;;8.97;8.07;;;22.40;87.20;;;22.08;69.04;97753.66;5024951;28;20466;-72
2023/06/20 05:39:28;;;;;;;9.67;8.67;;;22.30;87.30;;;22.19;66.78;97754.31;5027432;28;20578;-74
2023/06/20 05:41:56;;;;;;;10.10;9.10;;;22.30;86.10;;;21.81;68.49;97755.13;5026643;28;20465;-74
2023/06/20 05:44:24;;;;;;;9.57;8.57;;;22.10;86.70;;;21.65;69.62;97735.25;5009648;28;20486;-81
2023/06/20 05:46:53;;;;;;;10.70;9.70;;;21.90;87.50;;;21.16;70.35;97742.72;5023842;28;20458;-72
2023/06/20 05:49:21;;;;;;;9.90;8.90;;;21.50;87.50;;;20.85;72.35;97730.13;5042225;28;20465;-74
2023/06/20 05:51:48;;;;;;;9.47;8.60;;;21.10;88.80;;;20.78;73.40;97724.97;5016238;28;20525;-75
2023/06/20 05:54:16;;;;;;;10.87;9.87;;;20.90;90.20;;;20.63;74.62;97741.56;5014088;28;20528;-74
2023/06/20 05:56:43;;;;;;;10.50;9.50;;;20.80;90.90;;;20.62;75.85;97750.88;5029856;28;20457;-73
2023/06/20 05:59:11;;;;;;;10.30;9.20;;;20.70;91.70;;;20.61;76.83;97746.50;5012884;28;20581;-74
2023/06/20 06:01:40;;;;;;;9.17;8.27;;;20.80;92.30;;;20.92;73.81;97749.81;5021722;28;20469;-74
2023/06/20 06:04:08;;;;;;;10.30;9.17;;;20.90;91.00;;;21.18;73.25;97767.94;5008671;28;20450;-74
2023/06/20 06:06:36;;;;;;;10.60;9.60;;;21.10;90.90;;;21.28;72.91;97765.09;5003629;28;20489;-73
2023/06/20 06:09:04;;;;;;;10.70;9.70;;;21.20;90.70;;;21.29;73.21;97768.66;5009801;28;20457;-72
2023/06/20 06:11:31;;;;;;;15.40;10.90;;;21.40;90.70;;;21.19;74.28;97764.94;5026793;28;20931;-75
2023/06/20 06:13:59;;;;;;;12.27;10.97;;;21.40;90.70;;;20.97;76.09;97757.19;5027432;28;20450;-74
2023/06/20 06:16:27;;;;;;;11.23;10.10;;;21.20;91.50;;;20.90;76.18;97752.03;5006496;28;20458;-73
2023/06/20 06:18:54;;;;;;;11.30;10.07;;;21.10;91.70;;;21.14;75.97;97753.97;5008915;28;20465;-73
2023/06/20 06:21:23;;;;;;;12.23;10.20;;;21.20;92.30;;;20.97;76.16;97748.13;5006806;28;20449;-74
2023/06/20 06:23:50;;;;;;;10.93;9.83;;;21.20;92.00;;;21.32;75.33;97751.59;5027633;28;20550;-73
2023/06/20 06:26:18;;;;;;;11.50;10.40;;;21.30;92.20;;;21.70;73.86;97759.16;5023743;28;20463;-75
2023/06/20 06:28:45;;;;;;;12.20;10.53;;;21.60;91.40;;;22.28;71.39;97755.28;5029736;28;20467;-74
2023/06/20 06:31:16;;;;;;;11.27;10.17;;;22.00;90.70;;;22.62;71.26;97762.47;5033221;28;20474;-73
2023/06/20 06:33:44;;;;;;;10.37;9.30;;;22.70;90.20;;;23.26;68.48;97772.13;5022358;28;20516;-75
2023/06/20 06:36:11;;;;;;;11.37;10.27;;;23.20;89.40;;;23.01;69.14;97782.44;5013293;28;20455;-75
2023/06/20 06:38:41;;;;;;;11.37;10.27;;;23.20;88.20;;;23.00;68.90;97786.31;5029109;28;21014;-77
2023/06/20 06:41:09;;;;;;;11.73;10.53;;;23.20;88.00;;;22.79;68.29;97791.38;5025826;28;20758;-75
2023/06/20 06:43:36;;;;;;;10.73;9.73;;;23.10;87.50;;;22.92;67.43;97787.84;5026005;28;20931;-75
2023/06/20 06:46:04;;;;;;;10.37;9.27;;;23.00;86.70;;;23.10;67.08;97788.06;5035043;28;20452;-76
2023/06/20 06:48:33;;;;;;;10.73;9.73;;;23.00;87.00;;;23.15;66.39;97790.75;5028091;28;20455;-75
2023/06/20 06:51:02;;;;;;;10.50;9.43;;;23.30;86.40;;;23.25;66.26;97792.50;5008180;28;20823;-76
2023/06/20 06:53:29;;;;;;;10.83;9.83;;;23.30;86.30;;;23.52;64.43;97790.09;5032038;28;20467;-76
2023/06/20 06:55:58;;;;;;;10.57;9.67;;;23.50;85.40;;;23.73;63.45;97802.34;5007626;28;20444;-79
2023/06/20 06:58:25;;;;;;;10.43;9.50;;;23.60;85.30;;;23.93;62.26;97808.53;5019990;28;20445;-76
2023/06/20 07:00:53;;;;;;;9.43;8.60;;;23.80;84.80;;;23.93;62.78;97814.06;5003857;28;20826;-75
2023/06/20 07:03:20;;;;;;;11.63;10.43;;;23.80;84.50;;;24.02;62.75;97805.88;5006040;28;21136;-76
2023/06/20 07:05:47;;;;;;;9.63;8.73;;;24.00;84.00;;;24.29;61.31;97816.03;5023936;28;20513;-76
2023/06/20 07:08:14;;;;;;;9.83;8.83;;;24.20;83.90;;;24.12;62.89;97800.16;5027167;28;20474;-76
2023/06/20 07:10:42;;;;;;;11.13;10.03;;;24.30;84.10;;;24.20;62.38;97762.75;5003200;28;20483;-76
2023/06/20 07:13:11;;;;;;;10.20;9.20;;;24.50;84.10;;;24.54;60.56;97805.53;5024500;28;20518;-76
2023/06/20 07:15:38;;;;;;;10.80;9.40;;;24.60;83.00;;;23.87;60.77;97671.84;5025688;28;20465;-76
2023/06/20 07:18:07;;;;;;;9.73;8.70;;;24.80;82.70;;;24.71;60.24;97799.31;5014120;28;20464;-77
2023/06/20 07:20:34;;;;;;;9.33;8.43;;;24.80;82.30;;;24.81;59.60;97806.59;5025513;28;20548;-77
2023/06/20 07:23:02;;;;;;;9.37;8.47;;;24.80;82.00;;;25.09;58.22;97803.63;5009124;28;20473;-75
2023/06/20 07:25:29;;;;;;;8.77;7.87;;;25.00;81.40;;;25.10;58.65;97802.53;5024207;28;20953;-76
2023/06/20 07:27:57;;;;;;;9.07;8.17;;;25.20;81.10;;;25.22;57.93;97801.09;5026639;28;20521;-76
2023/06/20 07:30:26;;;;;;;9.00;8.20;;;25.40;80.80;;;24.79;58.94;97794.22;5015976;28;20977;-76
2023/06/20 07:32:53;;;;;;;9.50;8.60;;;25.20;80.20;;;24.70;59.63;97788.59;5013359;28;20540;-76
2023/06/20 07:35:21;;;;;;;8.63;7.83;;;25.00;81.00;;;24.69;59.73;97781.44;5004704;28;20519;-75
2023/06/20 07:37:48;;;;;;;9.07;7.67;;;24.70;81.30;;;24.97;58.78;97792.38;5026548;28;20459;-77
2023/06/20 07:40:15;;;;;;;8.50;7.80;;;24.90;81.00;;;25.46;57.21;97787.72;5005513;28;20992;-76
2023/06/20 07:42:43;;;;;;;9.10;8.30;;;25.40;80.40;;;24.65;59.96;97794.25;5026929;28;20961;-76
2023/06/20 07:45:11;;;;;;;7.20;6.50;;;25.00;80.70;;;24.50;58.58;97803.72;5012095;28;20461;-75
2023/06/20 07:47:39;;;;;;;8.73;7.93;;;24.70;79.80;;;24.99;57.67;97803.94;5029211;28;20461;-73
2023/06/20 07:50:08;;;;;;;8.57;7.77;;;24.80;79.90;;;25.14;57.94;97806.28;5018575;28;20571;-74
2023/06/20 07:52:36;;;;;;;8.03;7.27;;;25.10;79.80;;;25.09;57.72;97802.84;5025117;28;21072;-78
2023/06/20 07:55:04;;;;;;;8.20;7.47;;;25.20;79.30;;;24.85;57.88;97801.22;5009836;28;20462;-73
2023/06/20 07:57:31;;;;;;;8.20;7.50;;;25.00;79.30;;;25.36;56.56;97812.88;5025863;28;20457;-77
2023/06/20 07:59:59;;;;;;;7.27;6.67;;;25.30;79.10;;;25.37;55.62;97805.41;5004941;28;20451;-76
2023/06/20 08:02:28;;;;;;;7.10;6.50;;;25.40;77.90;;;25.65;54.92;97808.81;5024184;28;20581;-73
2023/06/20 08:04:58;;;;;;;6.97;6.37;;;25.50;77.80;;;25.04;55.90;97773.38;5001933;28;20556;-73
2023/06/20 08:07:25;;;;;;;5.83;5.33;;;25.40;77.80;;;25.30;53.99;97803.09;5007973;28;20463;-78
2023/06/20 08:09:53;;;;;;;5.50;5.00;;;25.40;76.00;;;25.39;53.32;97806.72;5011499;28;20548;-75
2023/06/20 08:12:20;;;;;;;4.70;4.40;;;25.40;75.30;;;25.46;53.83;97796.03;5024209;28;20518;-75
2023/06/20 08:14:47;;;;;;;5.73;5.23;;;25.50;75.30;;;25.51;52.50;97785.97;5005870;28;20456;-76
2023/06/20 08:17:15;;;;;;;6.57;5.67;;;25.60;74.50;;;25.69;53.26;97781.31;5005391;28;20476;-75
2023/06/20 08:19:42;;;;;;;6.47;5.87;;;25.70;74.90;;;25.76;53.40;97778.09;5034511;28;20477;-76
2023/06/20 08:22:11;;;;;;;5.43;4.93;;;25.70;75.20;;;25.86;52.40;97777.78;5026306;28;20485;-78
2023/06/20 08:24:38;;;;;;;5.70;5.20;;;25.90;74.20;;;25.88;52.62;97789.34;5008398;28;20461;-76
2023/06/20 08:27:06;;;;;;;5.77;5.27;;;25.90;74.10;;;26.14;52.38;97783.00;5024814;28;20461;-76
2023/06/20 08:29:34;;;;;;;6.53;5.80;;;26.10;74.10;;;26.55;51.33;97772.63;5018687;28;20468;-76
2023/06/20 08:32:02;;;;;;;6.00;5.47;;;26.40;73.40;;;26.91;50.44;97784.47;5004934;28;20809;-77
2023/06/20 08:34:29;;;;;;;6.27;5.67;;;26.70;72.60;;;26.78;50.12;97780.75;5026573;28;20457;-77
2023/06/20 08:36:56;;;;;;;6.13;5.63;;;26.90;71.60;;;27.19;49.42;97773.81;5007267;28;20546;-77
2023/06/20 08:39:25;;;;;;;6.40;5.57;;;27.20;70.90;;;27.53;48.04;97776.81;5025153;28;20478;-78
2023/06/20 08:41:52;;;;;;;6.33;5.73;;;27.50;70.10;;;27.40;48.17;97779.44;5005785;28;20450;-75
2023/06/20 08:44:21;;;;;;;6.13;5.63;;;27.60;69.20;;;27.28;48.64;97771.00;5009323;28;20549;-77
2023/06/20 08:46:57;;;;;;;6.23;5.63;;;27.50;69.00;;;27.12;48.69;97774.34;5026231;28;20954;-74
2023/06/20 08:49:24;;;;;;;6.70;6.10;;;27.30;68.90;;;26.71;49.29;97772.94;5025942;28;20594;-75
2023/06/20 08:51:56;;;;;;;6.07;5.57;;;26.90;69.10;;;25.97;50.93;97776.31;5022493;28;20517;-74
2023/06/20 08:54:26;;;;;;;7.27;6.67;;;26.50;69.40;;;26.30;51.45;97773.13;5023498;28;20460;-75
2023/06/20 08:56:55;;;;;;;7.33;6.73;;;26.30;70.60;;;26.53;50.77;97763.81;5017101;28;20512;-76
2023/06/20 08:59:22;;;;;;;7.07;6.47;;;26.50;70.80;;;26.33;51.15;97771.66;5029534;28;20453;-75
2023/06/20 09:01:50;;;;;;;7.57;6.87;;;26.50;70.60;;;26.12;51.14;97765.91;5005333;28;20470;-73
2023/06/20 09:04:19;;;;;;;7.77;7.00;;;26.30;70.10;;;25.95;52.20;97773.06;5023491;28;20462;-69
2023/06/20 09:06:50;;;;;;;7.70;6.90;;;26.00;71.20;;;26.40;51.29;97754.56;5022125;28;20454;-68
2023/06/20 09:09:18;;;;;;;7.40;6.70;;;26.30;71.10;;;26.55;51.15;97756.81;5006453;28;20458;-69
2023/06/20 09:11:56;;;;;;;7.57;6.87;;;26.50;71.00;;;26.77;50.30;97766.09;5019033;28;20889;-68
2023/06/20 09:14:27;;;;;;;7.20;6.50;;;26.60;70.30;;;26.71;50.01;97759.91;5015674;28;20485;-69
2023/06/20 09:16:55;;;;;;;7.10;6.50;;;26.70;69.90;;;26.24;51.20;97763.34;5025423;28;20462;-69
2023/06/20 09:19:23;;;;;;;6.60;6.00;;;26.40;70.10;;;26.55;50.71;97758.78;5007267;28;20461;-68
2023/06/20 09:21:50;;;;;;;7.17;6.57;;;26.50;70.30;;;26.92;49.82;97755.63;5023626;28;20449;-69
2023/06/20 09:24:20;;;;;;;7.20;6.13;;;26.80;69.90;;;26.83;49.38;97750.06;5020937;28;20466;-68
2023/06/20 09:26:47;;;;;;;5.97;5.37;;;26.90;69.00;;;26.65;49.76;97754.88;5025138;28;20458;-69
2023/06/20 09:29:18;;;;;;;6.73;6.13;;;26.70;69.10;;;26.78;48.58;97698.44;5005823;28;20982;-69
2023/06/20 09:31:48;;;;;;;6.03;5.53;;;26.90;68.70;;;27.14;48.61;97716.59;5012362;28;20539;-69
2023/06/20 09:34:19;;;;;;;6.30;5.80;;;27.20;68.80;;;27.47;47.87;97748.41;5026334;28;20680;-69
2023/06/20 09:36:47;;;;;;;6.33;5.83;;;27.40;68.10;;;27.68;47.20;97740.19;5004696;28;20461;-68
2023/06/20 09:39:17;;;;;;;6.20;5.60;;;27.60;67.70;;;27.26;47.73;97740.84;5024681;28;20458;-68
2023/06/20 09:41:45;;;;;;;5.77;5.30;;;27.40;66.90;;;27.27;47.87;97744.44;5003626;28;20459;-68
2023/06/20 09:44:13;;;;;;;6.00;5.27;;;27.20;67.30;;;27.28;48.26;97740.50;5017611;28;20485;-69
2023/06/20 09:46:42;;;;;;;6.03;5.47;;;27.30;67.60;;;27.32;47.31;97716.50;5021906;28;20543;-69
2023/06/20 09:49:13;;;;;;;5.80;5.20;;;27.30;66.80;;;27.19;47.45;97729.47;5023037;28;20466;-68
2023/06/20 09:51:48;;;;;;;5.57;4.97;;;27.20;66.50;;;27.76;46.72;97732.13;5011664;28;20477;-69
2023/06/20 09:54:30;;;;;;;5.80;5.30;;;27.50;66.50;;;27.74;46.88;97726.09;5024047;28;20515;-69
2023/06/20 09:57:04;;;;;;;6.53;5.20;;;27.70;65.90;;;28.13;46.46;97716.50;5023991;28;20456;-68
2023/06/20 09:59:33;;;;;;;5.17;4.77;;;28.00;66.00;;;28.24;45.35;97721.69;5006725;28;20447;-69
2023/06/20 10:02:02;;;;;;;6.27;5.00;;;28.10;64.80;;;28.39;45.26;97717.44;5017179;28;20562;-69
2023/06/20 10:04:31;;;;;;;5.63;5.13;;;28.30;64.70;;;28.34;44.93;97715.69;5009373;28;20531;-70
2023/06/20 10:06:59;;;;;;;4.97;4.57;;;28.30;64.40;;;27.81;46.18;97709.72;5021174;28;20486;-69
2023/06/20 10:09:26;;;;;;;5.20;4.80;;;28.00;64.20;;;27.67;46.51;97708.00;5025479;28;20461;-69
2023/06/20 10:11:53;;;;;;;5.00;4.60;;;27.70;64.50;;;27.64;46.31;97705.91;5023955;28;20512;-69
2023/06/20 10:14:21;;;;;;;5.30;4.80;;;27.70;64.40;;;28.31;45.45;97710.00;5019193;28;20464;-69
2023/06/20 10:16:52;;;;;;;5.33;4.83;;;28.00;64.40;;;29.24;43.41;97706.06;5024378;28;20466;-68
2023/06/20 10:19:22;;;;;;;4.90;4.50;;;28.70;63.80;;;28.64;43.81;97703.63;5028647;28;20454;-70
2023/06/20 10:22:00;;;;;;;4.93;4.53;;;28.70;62.70;;;28.70;44.58;97696.69;5025970;28;20469;-70
2023/06/20 10:24:30;;;;;;;5.03;4.63;;;28.80;63.20;;;28.92;43.81;97697.47;5028247;28;20461;-70
2023/06/20 10:27:01;;;;;;;4.90;4.50;;;28.90;63.00;;;28.97;44.16;97698.06;5021291;28;20865;-70